Time,TemperatureF,DewpointF,PressureIn,WindDirection,WindDirectionDegrees,WindSpeedMPH,WindSpeedGustMPH,Humidity,HourlyPrecipIn,Conditions,Clouds,dailyrainin,SoftwareType,DateUTC
2013-01-04 00:00:00,23.9,20.9,30.33,West,281,0.0,0.0,88,0.00,CLR,,0.00,WeatherDisplay:10.37,2013-01-04 05:00:00,
2013-01-04 00:15:00,23.6,20.6,30.34,West,281,0.0,0.0,88,0.00,CLR,,0.00,WeatherDisplay:10.37,2013-01-04 05:15:00,
2013-01-04 00:30:00,23.3,20.3,30.34,West,280,0.0,3.0,88,0.00,CLR,,0.00,WeatherDisplay:10.37,2013-01-04 05:30:00,
2013-01-04 00:45:00,23.1,20.1,30.33,West,281,0.0,1.0,88,0.00,CLR,,0.00,WeatherDisplay:10.37,2013-01-04 05:45:00,
2013-01-04 01:00:00,23.0,20.0,30.32,West,281,0.0,0.0,88,0.00,CLR,,0.00,WeatherDisplay:10.37,2013-01-04 06:00:00,
2013-01-04 01:15:00,22.7,19.7,30.32,West,281,0.0,1.0,88,0.00,CLR,,0.00,WeatherDisplay:10.37,2013-01-04 06:15:00,
2013-01-04 01:30:00,22.6,19.6,30.32,West,281,0.0,2.0,88,0.00,CLR,,0.00,WeatherDisplay:10.37,2013-01-04 06:30:00,
2013-01-04 01:45:00,22.5,19.5,30.33,West,280,0.0,2.0,88,0.00,CLR,,0.00,WeatherDisplay:10.37,2013-01-04 06:45:00,
2013-01-04 02:00:00,22.5,19.5,30.32,West,281,1.0,2.0,88,0.00,CLR,,0.00,WeatherDisplay:10.37,2013-01-04 07:00:00,
2013-01-04 02:15:00,22.4,19.4,30.33,West,281,0.0,2.0,88,0.00,CLR,,0.00,WeatherDisplay:10.37,2013-01-04 07:15:00,
2013-01-04 02:30:00,22.0,19.0,30.33,West,281,0.0,2.0,88,0.00,CLR,,0.00,WeatherDisplay:10.37,2013-01-04 07:30:00,
2013-01-04 02:45:00,21.5,18.5,30.34,West,281,0.0,0.0,88,0.00,CLR,,0.00,WeatherDisplay:10.37,2013-01-04 07:45:00,
2013-01-04 03:00:00,21.2,18.2,30.34,West,280,0.0,0.0,88,0.00,CLR,,0.00,WeatherDisplay:10.37,2013-01-04 08:00:00,
2013-01-04 03:15:00,21.1,18.1,30.35,West,281,0.0,0.0,88,0.00,CLR,,0.00,WeatherDisplay:10.37,2013-01-04 08:15:00,
2013-01-04 03:30:00,21.0,18.0,30.34,West,281,0.0,0.0,88,0.00,CLR,,0.00,WeatherDisplay:10.37,2013-01-04 08:30:00,
2013-01-04 03:45:00,20.7,17.7,30.33,West,281,0.0,0.0,88,0.00,CLR,,0.00,WeatherDisplay:10.37,2013-01-04 08:45:00,
2013-01-04 04:00:00,20.7,17.7,30.33,West,280,0.0,3.0,88,0.00,CLR,,0.00,WeatherDisplay:10.37,2013-01-04 09:00:00,
2013-01-04 04:15:00,20.7,18.0,30.33,West,281,0.0,0.0,89,0.00,CLR,,0.00,WeatherDisplay:10.37,2013-01-04 09:15:00,
2013-01-04 04:30:00,20.7,18.0,30.33,West,280,0.0,2.0,89,0.00,CLR,,0.00,WeatherDisplay:10.37,2013-01-04 09:30:00,
2013-01-04 04:45:00,20.5,17.5,30.33,West,281,0.0,2.0,88,0.00,CLR,,0.00,WeatherDisplay:10.37,2013-01-04 09:45:00,
2013-01-04 05:00:00,20.5,17.5,30.33,West,281,0.0,1.0,88,0.00,CLR,,0.00,WeatherDisplay:10.37,2013-01-04 10:00:00,
2013-01-04 05:15:00,20.2,17.5,30.33,West,280,0.0,0.0,89,0.00,CLR,,0.00,WeatherDisplay:10.37,2013-01-04 10:15:00,
2013-01-04 05:30:00,19.8,17.1,30.34,West,281,0.0,0.0,89,0.00,CLR,,0.00,WeatherDisplay:10.37,2013-01-04 10:30:00,
2013-01-04 05:45:00,19.7,17.0,30.33,West,280,0.0,0.0,89,0.00,CLR,,0.00,WeatherDisplay:10.37,2013-01-04 10:45:00,
2013-01-04 06:00:00,19.7,17.0,30.34,NNW,334,0.0,2.0,89,0.00,CLR,,0.00,WeatherDisplay:10.37,2013-01-04 11:00:00,
2013-01-04 06:15:00,19.4,16.4,30.34,NNW,340,0.0,0.0,88,0.00,CLR,,0.00,WeatherDisplay:10.37,2013-01-04 11:15:00,
2013-01-04 06:30:00,19.3,16.3,30.35,NNW,340,0.0,0.0,88,0.00,CLR,,0.00,WeatherDisplay:10.37,2013-01-04 11:30:00,
2013-01-04 06:45:00,19.2,16.4,30.35,NNW,340,0.0,0.0,89,0.00,CLR,,0.00,WeatherDisplay:10.37,2013-01-04 11:45:00,
2013-01-04 07:00:00,18.9,16.2,30.36,NNW,340,0.0,0.0,89,0.00,CLR,,0.00,WeatherDisplay:10.37,2013-01-04 12:00:00,
2013-01-04 07:15:00,18.6,15.9,30.36,NNW,340,0.0,0.0,89,0.00,CLR,,0.00,WeatherDisplay:10.37,2013-01-04 12:15:00,
2013-01-04 07:30:00,18.5,15.8,30.37,NNW,340,0.0,0.0,89,0.00,CLR,,0.00,WeatherDisplay:10.37,2013-01-04 12:30:00,
2013-01-04 07:45:00,18.6,15.9,30.37,NNW,340,0.0,0.0,89,0.00,CLR,,0.00,WeatherDisplay:10.37,2013-01-04 12:45:00,
2013-01-04 08:00:00,18.6,15.9,30.38,NNW,340,0.0,0.0,89,0.00,CLR,,0.00,WeatherDisplay:10.37,2013-01-04 13:00:00,
2013-01-04 08:15:00,18.6,15.9,30.39,NNW,340,0.0,0.0,89,0.00,CLR,,0.00,WeatherDisplay:10.37,2013-01-04 13:15:00,
2013-01-04 08:30:00,18.8,16.1,30.39,NNW,340,0.0,0.0,89,0.00,CLR,,0.00,WeatherDisplay:10.37,2013-01-04 13:30:00,
2013-01-04 08:45:00,19.1,16.4,30.39,NNW,340,0.0,2.0,89,0.00,CLR,,0.00,WeatherDisplay:10.37,2013-01-04 13:45:00,
2013-01-04 09:00:00,19.4,16.7,30.39,NNW,340,0.0,0.0,89,0.00,CLR,,0.00,WeatherDisplay:10.37,2013-01-04 14:00:00,
2013-01-04 09:15:00,21.3,18.5,30.40,NNW,340,0.0,0.0,89,0.00,CLR,,0.00,WeatherDisplay:10.37,2013-01-04 14:15:00,
2013-01-04 09:30:00,23.7,21.0,30.40,NNW,340,0.0,1.0,89,0.00,CLR,,0.00,WeatherDisplay:10.37,2013-01-04 14:30:00,
2013-01-04 09:45:00,25.5,22.7,30.40,NNW,340,0.0,0.0,89,0.00,CLR,,0.00,WeatherDisplay:10.37,2013-01-04 14:45:00,
2013-01-04 10:00:00,26.7,23.9,30.40,NNW,340,0.0,0.0,89,0.00,CLR,,0.00,WeatherDisplay:10.37,2013-01-04 15:00:00,
2013-01-04 10:15:00,28.4,25.6,30.41,NNW,340,0.0,1.0,89,0.00,CLR,,0.00,WeatherDisplay:10.37,2013-01-04 15:15:00,
2013-01-04 10:30:00,30.5,25.9,30.41,SW,218,0.0,4.0,83,0.00,CLR,,0.00,WeatherDisplay:10.37,2013-01-04 15:30:00,
2013-01-04 10:45:00,31.9,26.1,30.41,SSW,194,0.0,5.0,79,0.00,CLR,,0.00,WeatherDisplay:10.37,2013-01-04 15:45:00,
2013-01-04 11:00:00,33.3,25.9,30.41,ENE,61,3.0,6.0,74,0.00,CLR,,0.00,WeatherDisplay:10.37,2013-01-04 16:00:00,
2013-01-04 11:15:00,34.3,28.5,30.40,East,80,0.0,4.0,79,0.00,CLR,,0.00,WeatherDisplay:10.37,2013-01-04 16:15:00,
2013-01-04 11:30:00,35.2,26.4,30.39,ESE,117,1.0,5.0,70,0.00,CLR,,0.00,WeatherDisplay:10.37,2013-01-04 16:30:00,
2013-01-04 11:45:00,37.3,27.0,30.39,NE,38,3.0,5.0,66,0.00,CLR,,0.00,WeatherDisplay:10.37,2013-01-04 16:45:00,
2013-01-04 12:00:00,37.8,26.7,30.37,East,83,1.0,6.0,64,0.00,CLR,,0.00,WeatherDisplay:10.37,2013-01-04 17:00:00,
2013-01-04 12:16:00,38.5,25.4,30.36,East,86,1.0,6.0,59,0.00,CLR,,0.00,WeatherDisplay:10.37,2013-01-04 17:16:00,
2013-01-04 12:30:00,39.4,23.6,30.35,ENE,67,5.0,12.0,53,0.00,CLR,,0.00,WeatherDisplay:10.37,2013-01-04 17:30:00,
2013-01-04 12:45:00,40.9,25.6,30.35,East,84,5.0,10.0,54,0.00,CLR,,0.00,WeatherDisplay:10.37,2013-01-04 17:45:00,
2013-01-04 13:00:00,41.1,21.3,30.34,SSW,209,3.0,13.0,45,0.00,CLR,,0.00,WeatherDisplay:10.37,2013-01-04 18:00:00,
2013-01-04 13:15:00,42.0,20.0,30.34,ESE,105,5.0,15.0,41,0.00,CLR,,0.00,WeatherDisplay:10.37,2013-01-04 18:15:00,
2013-01-04 13:30:00,42.5,19.3,30.33,ESE,107,3.0,12.0,39,0.00,CLR,,0.00,WeatherDisplay:10.37,2013-01-04 18:30:00,
2013-01-04 13:45:00,42.7,18.2,30.33,ENE,72,7.0,14.0,37,0.00,CLR,,0.00,WeatherDisplay:10.37,2013-01-04 18:45:00,
2013-01-04 14:00:00,43.2,16.7,30.31,ENE,70,6.0,12.0,34,0.00,CLR,,0.00,WeatherDisplay:10.37,2013-01-04 19:00:00,
2013-01-04 14:15:00,43.7,17.8,30.30,ENE,67,3.0,8.0,35,0.00,CLR,,0.00,WeatherDisplay:10.37,2013-01-04 19:15:00,
2013-01-04 14:30:00,43.5,16.9,30.30,East,90,5.0,13.0,34,0.00,CLR,,0.00,WeatherDisplay:10.37,2013-01-04 19:30:00,
2013-01-04 14:45:00,43.4,16.9,30.31,ESE,112,7.0,14.0,34,0.00,CLR,,0.00,WeatherDisplay:10.37,2013-01-04 19:45:00,
2013-01-04 15:00:00,43.5,16.2,30.31,NE,49,2.0,13.0,33,0.00,CLR,,0.00,WeatherDisplay:10.37,2013-01-04 20:00:00,
2013-01-04 15:15:00,42.8,16.3,30.31,ENE,62,3.0,7.0,34,0.00,CLR,,0.00,WeatherDisplay:10.37,2013-01-04 20:15:00,
2013-01-04 15:30:00,42.3,17.2,30.32,ESE,108,5.0,8.0,36,0.00,CLR,,0.00,WeatherDisplay:10.37,2013-01-04 20:30:00,
2013-01-04 15:45:00,41.7,17.3,30.33,East,79,6.0,12.0,37,0.00,CLR,,0.00,WeatherDisplay:10.37,2013-01-04 20:45:00,
2013-01-04 16:00:00,40.7,17.0,30.32,East,86,5.0,13.0,38,0.00,CLR,,0.00,WeatherDisplay:10.37,2013-01-04 21:00:00,
2013-01-04 16:15:00,40.2,16.0,30.33,ENE,74,6.0,14.0,37,0.00,CLR,,0.00,WeatherDisplay:10.37,2013-01-04 21:15:00,
2013-01-04 16:30:00,39.2,15.7,30.33,ENE,75,6.0,9.0,38,0.00,CLR,,0.00,WeatherDisplay:10.37,2013-01-04 21:30:00,
2013-01-04 16:45:00,38.3,16.6,30.33,East,85,2.0,12.0,41,0.00,CLR,,0.00,WeatherDisplay:10.37,2013-01-04 21:45:00,
2013-01-04 17:00:00,37.4,16.4,30.34,East,81,6.0,12.0,42,0.00,CLR,,0.00,WeatherDisplay:10.37,2013-01-04 22:00:00,
2013-01-04 17:15:00,36.7,20.2,30.35,East,86,1.0,10.0,51,0.00,CLR,,0.00,WeatherDisplay:10.37,2013-01-04 22:15:00,
2013-01-04 17:30:00,34.7,18.0,30.35,East,94,1.0,6.0,50,0.00,CLR,,0.00,WeatherDisplay:10.37,2013-01-04 22:30:00,
2013-01-04 17:45:00,33.6,19.5,30.36,SW,231,0.0,7.0,56,0.00,CLR,,0.00,WeatherDisplay:10.37,2013-01-04 22:45:00,
2013-01-04 18:00:00,32.1,20.1,30.36,SW,217,1.0,3.0,61,0.00,CLR,,0.00,WeatherDisplay:10.37,2013-01-04 23:00:00,
2013-01-04 18:15:00,30.6,19.1,30.37,WNW,299,1.0,4.0,62,0.00,CLR,,0.00,WeatherDisplay:10.37,2013-01-04 23:15:00,
2013-01-04 18:30:00,29.2,19.6,30.37,WNW,298,2.0,3.0,67,0.00,CLR,,0.00,WeatherDisplay:10.37,2013-01-04 23:30:00,
2013-01-04 18:45:00,28.2,19.7,30.37,WNW,295,1.0,5.0,70,0.00,CLR,,0.00,WeatherDisplay:10.37,2013-01-04 23:45:00,
2013-01-04 19:00:00,27.8,19.3,30.37,WNW,295,1.0,3.0,70,0.00,CLR,,0.00,WeatherDisplay:10.37,2013-01-05 00:00:00,
2013-01-04 19:15:00,27.3,19.5,30.38,WNW,295,1.0,4.0,72,0.00,CLR,,0.00,WeatherDisplay:10.37,2013-01-05 00:15:00,
2013-01-04 19:30:00,27.0,19.1,30.38,WNW,295,0.0,3.0,72,0.00,CLR,,0.00,WeatherDisplay:10.37,2013-01-05 00:30:00,
2013-01-04 19:45:00,26.6,19.4,30.39,WNW,295,1.0,4.0,74,0.00,CLR,,0.00,WeatherDisplay:10.37,2013-01-05 00:45:00,
2013-01-04 20:00:00,26.7,19.2,30.39,WNW,295,2.0,5.0,73,0.00,CLR,,0.00,WeatherDisplay:10.37,2013-01-05 01:00:00,
2013-01-04 20:15:00,27.6,18.0,30.39,East,95,5.0,10.0,67,0.00,CLR,,0.00,WeatherDisplay:10.37,2013-01-05 01:15:00,
2013-01-04 20:31:00,28.5,19.3,30.39,West,263,2.0,5.0,68,0.00,CLR,,0.00,WeatherDisplay:10.37,2013-01-05 01:31:00,
2013-01-04 20:45:00,27.2,19.7,30.39,West,263,0.0,3.0,73,0.00,CLR,,0.00,WeatherDisplay:10.37,2013-01-05 01:45:00,
2013-01-04 21:00:00,26.4,19.5,30.40,West,263,1.0,3.0,75,0.00,CLR,,0.00,WeatherDisplay:10.37,2013-01-05 02:00:00,
2013-01-04 21:15:00,25.8,19.3,30.40,West,263,1.0,3.0,76,0.00,CLR,,0.00,WeatherDisplay:10.37,2013-01-05 02:15:00,
2013-01-04 21:30:00,25.3,19.7,30.40,West,263,1.0,3.0,79,0.00,CLR,,0.00,WeatherDisplay:10.37,2013-01-05 02:30:00,
2013-01-04 21:45:00,25.0,19.7,30.39,West,263,0.0,3.0,80,0.00,CLR,,0.00,WeatherDisplay:10.37,2013-01-05 02:45:00,
2013-01-04 22:00:00,24.8,19.8,30.41,West,263,1.0,3.0,81,0.00,CLR,,0.00,WeatherDisplay:10.37,2013-01-05 03:00:00,
2013-01-04 22:15:00,24.7,20.0,30.40,West,268,0.0,3.0,82,0.00,CLR,,0.00,WeatherDisplay:10.37,2013-01-05 03:15:00,
2013-01-04 22:30:00,24.5,19.8,30.40,West,276,0.0,3.0,82,0.00,CLR,,0.00,WeatherDisplay:10.37,2013-01-05 03:30:00,
2013-01-04 22:45:00,24.2,19.8,30.40,West,275,1.0,3.0,83,0.00,CLR,,0.00,WeatherDisplay:10.37,2013-01-05 03:45:00,
2013-01-04 23:00:00,24.0,19.9,30.40,West,275,1.0,3.0,84,0.00,CLR,,0.00,WeatherDisplay:10.37,2013-01-05 04:00:00,
2013-01-04 23:15:00,24.0,20.1,30.41,West,275,0.0,3.0,85,0.00,CLR,,0.00,WeatherDisplay:10.37,2013-01-05 04:15:00,
2013-01-04 23:30:00,23.9,20.0,30.42,West,275,1.0,3.0,85,0.00,CLR,,0.00,WeatherDisplay:10.37,2013-01-05 04:30:00,
2013-01-04 23:45:00,23.8,20.2,30.41,West,275,0.0,3.0,86,0.00,CLR,,0.00,WeatherDisplay:10.37,2013-01-05 04:45:00,